Aeroporto :
LOGIN :

Iscrizione | Disclaimer

   EN    FR    IT 

 










Sommario :    VFR   VFR Marginale   IFR   IFR Intensivo   IFR Molto Intensivo
Visibilità : 
Base nubi : 
>= 8 km
>= 3000ft
5 / 8 km
1000 / 3000 ft
1500m / 5 km
500 / 1000 ft
800 / 1500m
200 / 500 ft
< 800m
< 200 ft
Simboli :   Temporali  Nebbia  Neve Forte  Precipitazioni Forti  Vento > 20 kt
SIGMETs :   Varie  Temporali  Ghiacco  Turbolenza  Onda orograficha  Ceneri Vulcaniche






- Altitudine del aeroporto : 53 ft
- Codice IATA : HRT


EGXU - RAF Linton-on-Ouse

ULTIMO METAR :
  • 211250Z 34012KT 9999 FEW014 BKN035 10/08 Q1022 TEMPO SCT015 RMK BLU TEMPO WHT

METARs OBSOLETI :
  • 211220Z 33009KT 9999 FEW012 SCT020 BKN035 10/09 Q1022 TEMPO FEW020 RMK WHT TEMPO BLU
  • 211150Z 33011KT 9999 -SHRA BKN014 BKN025 10/08 Q1022 TEMPO FEW014 RMK GRN TEMPO BLU
  • 211129Z 33010KT 9999 SCT010 BKN028 10/09 Q1022 RESHRA TEMPO FEW010 RMK GRN TEMPO BLU
  • 211112Z 33010KT 5000 SHRA SCT008 OVC030 10/09 Q1022 TEMPO 9999 NSW FEW008 BKN018 RMK GRN TEMPO WHT
  • 211050Z 33012KT 9999 -SHRA BKN010 OVC030 10/09 Q1022 BECMG FEW010 BKN018 RMK GRN BECMG WHT

TAF TAF EGXU
Valido dal 21 a 12 ore il 21 a 18 ore UTC


211029Z 2112/2118 34008KT 9999 FEW015 BKN035
TEMPO 2112/2116 SCT016
PROB30
TEMPO 2112/2113 6000 -SHRA SCT012



MetMap, La meteo Aeronautica in un colpo d'occhio ! - Copyright ORBIFLY Dicembre 2007 - Disclaimer

ORBIFLY MET'MAP TEAM :

Programmazione e sviluppo : Alexandra Zaïnal
Concezione e sviluppo : Baudouin d'Aumeries
Co-Programmazione e sviluppo : Marc-Olivier Méhu
Supporto tecnico e logistico : Manuel Goepfert
Aiuto per la traduzione : Arnaldo La Scala

Contatto : metmap@orbifly.com




FONTI E CREDITI :

   NOAA